Time;durP1;ratioP1;P1;durP2;ratioP2;P2;SDS_P1;SDS_P2;PMS_P1;PMS_P2;Temp;Humidity;BMP_temperature;BMP_pressure;BME280_temperature;BME280_humidity;BME280_pressure;Samples;Min_cycle;Max_cycle;Signal;HPM_P1;HPM_P2
2021/03/30 00:00:55;;;;;;;6.50;4.50;;;;;;;;;;5053246;28;20888;-73
2021/03/30 00:03:21;;;;;;;6.57;2.77;;;;;;;;;;5050672;28;20440;-73
2021/03/30 00:05:47;;;;;;;6.10;3.83;;;;;;;;;;5052819;28;20405;-73
2021/03/30 00:08:14;;;;;;;5.63;3.30;;;;;;;;;;5044272;28;20579;-73
2021/03/30 00:10:43;;;;;;;4.93;2.60;;;;;;;;;;5031904;28;20449;-73
2021/03/30 00:13:09;;;;;;;5.50;3.60;;;;;;;;;;5039156;28;20426;-73
2021/03/30 00:15:36;;;;;;;6.47;3.17;;;;;;;;;;5052911;28;20441;-73
2021/03/30 00:18:02;;;;;;;3.50;3.00;;;;;;;;;;5044245;28;20424;-73
2021/03/30 00:20:28;;;;;;;8.93;2.90;;;;;;;;;;5053020;28;20397;-72
2021/03/30 00:22:54;;;;;;;3.70;2.63;;;;;;;;;;5054371;28;20432;-74
2021/03/30 00:25:20;;;;;;;5.77;3.07;;;;;;;;;;5056353;28;20878;-73
2021/03/30 00:27:46;;;;;;;6.93;3.10;;;;;;;;;;5055574;28;20882;-75
2021/03/30 00:30:13;;;;;;;4.73;2.60;;;;;;;;;;5067930;28;20481;-73
2021/03/30 00:32:40;;;;;;;6.93;3.00;;;;;;;;;;5036274;28;20481;-74
2021/03/30 00:35:07;;;;;;;5.17;2.80;;;;;;;;;;5052707;28;20480;-74
2021/03/30 00:37:33;;;;;;;10.93;4.00;;;;;;;;;;5054749;28;20520;-74
2021/03/30 00:39:59;;;;;;;4.93;3.40;;;;;;;;;;5054916;28;20470;-74
2021/03/30 00:42:25;;;;;;;6.43;3.43;;;;;;;;;;5038124;28;20471;-74
2021/03/30 00:44:52;;;;;;;6.17;3.20;;;;;;;;;;5054645;28;20421;-74
2021/03/30 00:47:19;;;;;;;10.20;3.33;;;;;;;;;;5055666;28;20891;-74
2021/03/30 00:49:45;;;;;;;6.87;3.47;;;;;;;;;;5054595;28;20881;-74
2021/03/30 00:52:12;;;;;;;4.73;3.53;;;;;;;;;;5055580;28;20403;-74
2021/03/30 00:54:38;;;;;;;5.10;3.10;;;;;;;;;;5053056;28;20437;-74
2021/03/30 00:57:05;;;;;;;8.20;3.60;;;;;;;;;;5055299;28;20456;-74
2021/03/30 00:59:31;;;;;;;6.53;2.80;;;;;;;;;;5036284;28;20441;-74
2021/03/30 01:01:57;;;;;;;10.60;3.93;;;;;;;;;;5055275;28;20393;-73
2021/03/30 01:04:23;;;;;;;4.80;3.60;;;;;;;;;;5053257;28;20427;-73
2021/03/30 01:06:49;;;;;;;6.87;3.17;;;;;;;;;;5055549;28;20818;-73
2021/03/30 01:09:19;;;;;;;11.53;3.20;;;;;;;;;;5046136;28;20840;-73
2021/03/30 01:11:51;;;;;;;3.97;2.77;;;;;;;;;;5035296;28;20442;-74
2021/03/30 01:14:27;;;;;;;7.77;3.23;;;;;;;;;;5043598;28;21008;-74
2021/03/30 01:16:55;;;;;;;4.70;2.63;;;;;;;;;;5054044;28;20451;-74
2021/03/30 01:19:27;;;;;;;3.40;2.40;;;;;;;;;;5054093;28;20445;-73
2021/03/30 01:22:12;;;;;;;6.50;3.23;;;;;;;;;;5055420;28;20398;-74
2021/03/30 01:24:39;;;;;;;5.07;3.00;;;;;;;;;;5054486;28;20514;-74
2021/03/30 01:27:24;;;;;;;3.93;2.80;;;;;;;;;;5055024;28;20855;-73
2021/03/30 01:29:54;;;;;;;4.53;3.10;;;;;;;;;;5053927;28;20505;-73
2021/03/30 01:32:20;;;;;;;5.40;2.63;;;;;;;;;;5042497;28;20785;-73
2021/03/30 01:34:47;;;;;;;5.97;3.20;;;;;;;;;;5051912;28;20432;-73
2021/03/30 01:37:14;;;;;;;4.40;2.43;;;;;;;;;;5054940;28;20884;-73
2021/03/30 01:39:41;;;;;;;6.60;2.90;;;;;;;;;;5053206;28;20445;-73
2021/03/30 01:42:11;;;;;;;5.33;3.20;;;;;;;;;;5054572;28;20411;-73
2021/03/30 01:44:41;;;;;;;5.20;2.77;;;;;;;;;;5053784;28;20429;-73
2021/03/30 01:47:07;;;;;;;6.50;2.67;;;;;;;;;;5054627;28;20975;-73
2021/03/30 01:49:35;;;;;;;5.17;2.60;;;;;;;;;;5053642;28;20453;-73
2021/03/30 01:52:01;;;;;;;6.87;3.00;;;;;;;;;;5054463;28;20398;-73
2021/03/30 01:54:27;;;;;;;7.90;2.90;;;;;;;;;;5052947;28;20437;-73
2021/03/30 01:56:54;;;;;;;4.10;2.93;;;;;;;;;;5054447;28;20441;-73
2021/03/30 01:59:22;;;;;;;3.30;2.13;;;;;;;;;;5053046;28;20452;-73
2021/03/30 02:01:48;;;;;;;7.60;3.30;;;;;;;;;;5052856;28;20401;-73
2021/03/30 02:04:15;;;;;;;3.50;2.50;;;;;;;;;;5054305;28;20398;-73
2021/03/30 02:06:42;;;;;;;4.00;2.60;;;;;;;;;;5047115;28;20441;-73
2021/03/30 02:09:13;;;;;;;4.60;2.40;;;;;;;;;;5034304;28;20857;-73
2021/03/30 02:11:46;;;;;;;6.27;2.40;;;;;;;;;;5050073;28;20438;-73
2021/03/30 02:14:13;;;;;;;7.20;2.60;;;;;;;;;;5054291;28;20384;-73
2021/03/30 02:16:48;;;;;;;4.77;2.30;;;;;;;;;;5049710;28;20455;-73
2021/03/30 02:19:18;;;;;;;6.93;3.07;;;;;;;;;;5052594;28;20950;-73
2021/03/30 02:21:58;;;;;;;4.87;2.90;;;;;;;;;;5052808;28;20429;-73
2021/03/30 02:24:25;;;;;;;4.60;2.57;;;;;;;;;;5054039;28;20390;-73
2021/03/30 02:26:52;;;;;;;8.10;2.70;;;;;;;;;;5051775;28;20424;-73
2021/03/30 02:29:25;;;;;;;4.10;2.70;;;;;;;;;;5053881;28;20428;-73
2021/03/30 02:31:53;;;;;;;4.10;2.97;;;;;;;;;;5035774;28;20426;-73
2021/03/30 02:34:19;;;;;;;9.90;3.23;;;;;;;;;;5034012;28;20463;-73
2021/03/30 02:36:47;;;;;;;5.63;2.70;;;;;;;;;;5049425;28;20450;-73
2021/03/30 02:39:13;;;;;;;6.93;2.63;;;;;;;;;;5053741;28;20425;-74
2021/03/30 02:41:40;;;;;;;8.50;3.50;;;;;;;;;;5052452;28;20422;-73
2021/03/30 02:44:08;;;;;;;4.70;2.30;;;;;;;;;;5053364;28;20526;-73
2021/03/30 02:46:35;;;;;;;5.47;2.80;;;;;;;;;;5051003;28;20432;-74
2021/03/30 02:49:02;;;;;;;4.17;2.23;;;;;;;;;;5053351;28;20453;-74
2021/03/30 02:51:29;;;;;;;3.10;2.07;;;;;;;;;;5052324;28;20428;-73
2021/03/30 02:53:56;;;;;;;7.40;3.10;;;;;;;;;;5053591;28;20416;-73
2021/03/30 02:56:23;;;;;;;4.20;2.90;;;;;;;;;;5050105;28;20463;-73
2021/03/30 02:58:51;;;;;;;3.63;2.30;;;;;;;;;;5053204;28;20854;-73
2021/03/30 03:01:17;;;;;;;4.47;2.40;;;;;;;;;;5045618;28;20471;-72
2021/03/30 03:03:43;;;;;;;3.87;2.27;;;;;;;;;;5053527;28;20468;-73
2021/03/30 03:06:10;;;;;;;6.10;2.30;;;;;;;;;;5052149;28;20433;-73
2021/03/30 03:08:36;;;;;;;4.47;2.77;;;;;;;;;;5048294;28;20460;-74
2021/03/30 03:11:03;;;;;;;4.40;2.37;;;;;;;;;;5036664;28;20461;-73
2021/03/30 03:13:29;;;;;;;6.03;2.80;;;;;;;;;;5032008;28;20468;-74
2021/03/30 03:15:55;;;;;;;4.47;3.00;;;;;;;;;;5040509;28;20461;-74
2021/03/30 03:18:22;;;;;;;6.57;3.97;;;;;;;;;;5051978;28;20494;-74
2021/03/30 03:20:48;;;;;;;4.33;2.40;;;;;;;;;;5052642;28;20494;-74
2021/03/30 03:23:15;;;;;;;4.13;2.93;;;;;;;;;;5053545;28;20411;-74
2021/03/30 03:25:41;;;;;;;8.27;3.37;;;;;;;;;;5046442;28;20427;-74
2021/03/30 03:28:08;;;;;;;9.03;3.67;;;;;;;;;;5033418;28;20488;-74
2021/03/30 03:30:34;;;;;;;20.80;10.13;;;;;;;;;;5037048;28;20503;-73
2021/03/30 03:33:10;;;;;;;10.40;4.87;;;;;;;;;;5052240;28;20565;-74
2021/03/30 03:35:36;;;;;;;6.67;3.67;;;;;;;;;;5051974;28;20529;-74
2021/03/30 03:38:02;;;;;;;5.57;3.00;;;;;;;;;;5053044;28;20397;-74
2021/03/30 03:40:29;;;;;;;7.27;3.90;;;;;;;;;;5052112;28;20426;-73
2021/03/30 03:42:56;;;;;;;4.50;3.50;;;;;;;;;;5052873;28;20400;-74
2021/03/30 03:45:22;;;;;;;7.93;4.13;;;;;;;;;;5050262;28;20884;-73
2021/03/30 03:47:48;;;;;;;5.20;2.90;;;;;;;;;;5050956;28;20425;-73
2021/03/30 03:50:14;;;;;;;4.30;2.23;;;;;;;;;;5051635;28;20416;-74
2021/03/30 03:52:50;;;;;;;6.00;3.30;;;;;;;;;;5052837;28;20394;-74
2021/03/30 03:55:17;;;;;;;5.77;3.50;;;;;;;;;;5051902;28;20943;-74
2021/03/30 03:57:53;;;;;;;4.73;3.10;;;;;;;;;;5056619;28;20459;-74
2021/03/30 04:00:20;;;;;;;4.13;2.67;;;;;;;;;;5053826;28;20428;-74
2021/03/30 04:02:47;;;;;;;6.10;3.87;;;;;;;;;;5036781;28;20759;-73
2021/03/30 04:05:36;;;;;;;6.10;3.53;;;;;;;;;;5039144;28;20506;-73
2021/03/30 04:08:08;;;;;;;7.03;3.40;;;;;;;;;;5026224;28;20435;-74
2021/03/30 04:10:34;;;;;;;4.70;3.20;;;;;;;;;;5036919;28;20455;-74
2021/03/30 04:13:01;;;;;;;5.00;3.10;;;;;;;;;;5036594;28;20417;-73
2021/03/30 04:15:27;;;;;;;6.00;2.70;;;;;;;;;;5037660;28;20450;-73
2021/03/30 04:17:53;;;;;;;4.90;2.87;;;;;;;;;;5056637;28;20400;-73
2021/03/30 04:20:20;;;;;;;5.10;3.10;;;;;;;;;;5054344;28;20949;-73
2021/03/30 04:22:55;;;;;;;10.67;3.77;;;;;;;;;;5056093;28;20501;-74
2021/03/30 04:25:21;;;;;;;6.90;3.00;;;;;;;;;;5055669;28;20493;-74
2021/03/30 04:27:47;;;;;;;7.60;4.00;;;;;;;;;;5036415;28;20440;-73
2021/03/30 04:30:15;;;;;;;6.73;4.13;;;;;;;;;;5036105;28;20492;-73
2021/03/30 04:32:41;;;;;;;8.67;4.97;;;;;;;;;;5053396;28;20518;-73
2021/03/30 04:35:08;;;;;;;9.27;3.47;;;;;;;;;;5056064;28;20402;-73
2021/03/30 04:37:34;;;;;;;6.43;3.20;;;;;;;;;;5052418;28;20557;-73
2021/03/30 04:40:00;;;;;;;5.37;2.87;;;;;;;;;;5053668;28;20447;-73
2021/03/30 04:42:26;;;;;;;6.80;3.10;;;;;;;;;;5055873;28;20402;-73
2021/03/30 04:44:52;;;;;;;5.67;3.30;;;;;;;;;;5054845;28;20428;-73
2021/03/30 04:47:18;;;;;;;5.67;3.63;;;;;;;;;;5055778;28;20440;-73
2021/03/30 04:49:44;;;;;;;5.70;3.23;;;;;;;;;;5054916;28;20457;-73
2021/03/30 04:52:10;;;;;;;8.30;3.93;;;;;;;;;;5055773;28;20410;-73
2021/03/30 04:54:36;;;;;;;6.97;4.30;;;;;;;;;;5054483;28;20433;-73
2021/03/30 04:57:02;;;;;;;9.80;3.60;;;;;;;;;;5055606;28;20456;-73
2021/03/30 04:59:28;;;;;;;7.13;4.10;;;;;;;;;;5054726;28;20443;-73
2021/03/30 05:01:54;;;;;;;11.23;5.07;;;;;;;;;;5055761;28;20398;-73
2021/03/30 05:04:21;;;;;;;9.87;4.17;;;;;;;;;;5048221;28;20431;-74
2021/03/30 05:06:47;;;;;;;5.50;4.03;;;;;;;;;;5035018;28;20488;-73
2021/03/30 05:09:13;;;;;;;7.00;4.27;;;;;;;;;;5036046;28;20624;-73
2021/03/30 05:11:39;;;;;;;10.83;4.83;;;;;;;;;;5036427;28;20914;-73
2021/03/30 05:14:05;;;;;;;9.53;5.10;;;;;;;;;;5034529;28;20572;-73
2021/03/30 05:16:31;;;;;;;8.63;3.70;;;;;;;;;;5036144;28;20472;-73
2021/03/30 05:18:57;;;;;;;12.90;3.80;;;;;;;;;;5036923;28;20990;-73
2021/03/30 05:21:23;;;;;;;9.30;3.70;;;;;;;;;;5054528;28;20970;-73
2021/03/30 05:23:49;;;;;;;7.20;4.37;;;;;;;;;;5052611;28;20463;-73
2021/03/30 05:26:16;;;;;;;11.23;5.30;;;;;;;;;;5035555;28;20438;-73
2021/03/30 05:28:42;;;;;;;13.63;5.00;;;;;;;;;;5034985;28;20425;-72
2021/03/30 05:31:08;;;;;;;14.33;5.07;;;;;;;;;;5037038;28;21145;-73
2021/03/30 05:33:34;;;;;;;5.90;4.40;;;;;;;;;;5055112;28;20901;-72
2021/03/30 05:36:00;;;;;;;11.57;4.27;;;;;;;;;;5035161;28;20466;-73
2021/03/30 05:38:26;;;;;;;12.00;4.10;;;;;;;;;;5034973;28;20775;-72
2021/03/30 05:40:54;;;;;;;6.80;4.00;;;;;;;;;;5049130;28;20625;-73
2021/03/30 05:43:20;;;;;;;7.23;3.70;;;;;;;;;;5055084;28;20412;-73
2021/03/30 05:45:47;;;;;;;5.10;3.60;;;;;;;;;;5053618;28;20459;-74
2021/03/30 05:48:15;;;;;;;8.10;4.00;;;;;;;;;;5054551;28;20408;-73
2021/03/30 05:50:42;;;;;;;7.67;4.07;;;;;;;;;;5052541;28;20436;-73
2021/03/30 05:53:09;;;;;;;10.40;3.73;;;;;;;;;;5053554;28;20496;-73
2021/03/30 05:55:36;;;;;;;6.97;3.90;;;;;;;;;;5053410;28;20427;-73
2021/03/30 05:58:03;;;;;;;10.27;3.37;;;;;;;;;;5054508;28;20437;-73
2021/03/30 06:00:30;;;;;;;7.43;3.40;;;;;;;;;;5053222;28;20421;-73
2021/03/30 06:02:57;;;;;;;9.83;3.50;;;;;;;;;;5054410;28;20416;-73
2021/03/30 06:05:23;;;;;;;9.00;4.23;;;;;;;;;;5053256;28;20456;-74
2021/03/30 06:07:52;;;;;;;6.33;3.70;;;;;;;;;;5054351;28;20894;-73
2021/03/30 06:10:19;;;;;;;6.00;3.27;;;;;;;;;;5050810;28;20550;-73
2021/03/30 06:12:45;;;;;;;7.30;3.90;;;;;;;;;;5054431;28;20423;-74
2021/03/30 06:15:12;;;;;;;8.60;3.07;;;;;;;;;;5052886;28;20485;-73
2021/03/30 06:17:45;;;;;;;8.50;3.57;;;;;;;;;;5052780;28;20488;-73
2021/03/30 06:20:13;;;;;;;6.90;3.80;;;;;;;;;;5051488;28;20445;-73
2021/03/30 06:22:46;;;;;;;11.07;3.90;;;;;;;;;;5054277;28;20405;-73
2021/03/30 06:25:12;;;;;;;5.77;3.90;;;;;;;;;;5048832;28;20436;-74
2021/03/30 06:27:38;;;;;;;6.07;3.30;;;;;;;;;;5033906;28;20415;-74
2021/03/30 06:30:06;;;;;;;6.33;3.97;;;;;;;;;;5036546;28;20538;-73
2021/03/30 06:32:32;;;;;;;8.13;3.57;;;;;;;;;;5053890;28;20722;-73
2021/03/30 06:35:13;;;;;;;9.47;3.30;;;;;;;;;;5049456;28;20427;-74
2021/03/30 06:37:39;;;;;;;4.90;3.03;;;;;;;;;;5033520;28;20457;-73
2021/03/30 06:40:22;;;;;;;4.17;2.97;;;;;;;;;;5033497;28;20453;-74
2021/03/30 06:42:58;;;;;;;6.63;3.70;;;;;;;;;;5033498;28;20422;-74
2021/03/30 06:45:28;;;;;;;6.10;3.37;;;;;;;;;;5039955;28;20808;-74
2021/03/30 06:47:57;;;;;;;8.87;3.27;;;;;;;;;;5053396;28;20402;-73
2021/03/30 06:50:31;;;;;;;7.50;3.90;;;;;;;;;;5047794;28;20460;-74
2021/03/30 06:52:57;;;;;;;6.00;3.43;;;;;;;;;;5033477;28;20405;-74
2021/03/30 06:55:26;;;;;;;8.33;4.13;;;;;;;;;;5039178;28;20466;-74
2021/03/30 06:57:52;;;;;;;10.90;3.70;;;;;;;;;;5053557;28;20413;-74
2021/03/30 07:00:29;;;;;;;5.50;2.90;;;;;;;;;;5052395;28;20488;-74
2021/03/30 07:02:59;;;;;;;8.40;3.93;;;;;;;;;;5053289;28;20922;-74
2021/03/30 07:05:47;;;;;;;6.27;3.87;;;;;;;;;;5043397;28;20467;-73
2021/03/30 07:08:17;;;;;;;11.83;3.77;;;;;;;;;;5044850;28;20421;-73
2021/03/30 07:10:45;;;;;;;10.50;4.37;;;;;;;;;;5046865;28;20512;-73
2021/03/30 07:13:12;;;;;;;5.93;3.80;;;;;;;;;;5048465;28;20446;-74
2021/03/30 07:15:38;;;;;;;6.60;4.07;;;;;;;;;;5044853;28;20448;-73
2021/03/30 07:18:07;;;;;;;6.07;3.40;;;;;;;;;;5041590;28;20442;-72
2021/03/30 07:20:47;;;;;;;10.83;3.80;;;;;;;;;;5040068;28;20440;-70
2021/03/30 07:23:20;;;;;;;7.93;4.10;;;;;;;;;;5048166;28;20429;-70
2021/03/30 07:26:12;;;;;;;11.60;5.03;;;;;;;;;;5045589;28;20437;-72
2021/03/30 07:28:50;;;;;;;8.87;4.20;;;;;;;;;;5046272;28;20512;-70
2021/03/30 07:31:36;;;;;;;28.30;8.23;;;;;;;;;;5047504;28;20436;-72
2021/03/30 07:34:04;;;;;;;28.27;6.85;;;;;;;;;;5015282;28;20419;-71
2021/03/30 07:36:34;;;;;;;8.37;4.03;;;;;;;;;;5051443;28;20282;-71
2021/03/30 07:39:01;;;;;;;5.40;3.10;;;;;;;;;;5054321;28;20433;-71
2021/03/30 07:41:27;;;;;;;8.87;3.67;;;;;;;;;;5050879;28;20416;-72
2021/03/30 07:43:58;;;;;;;7.13;4.30;;;;;;;;;;5055367;28;20505;-71
2021/03/30 07:46:25;;;;;;;4.80;3.90;;;;;;;;;;5049678;28;20992;-71
2021/03/30 07:48:51;;;;;;;7.97;3.43;;;;;;;;;;5041873;28;20464;-71
2021/03/30 07:51:23;;;;;;;9.30;4.30;;;;;;;;;;5051545;28;20429;-72
2021/03/30 07:53:53;;;;;;;5.90;3.37;;;;;;;;;;5053319;28;20781;-72
2021/03/30 07:56:22;;;;;;;5.67;3.47;;;;;;;;;;5049972;28;20453;-72
2021/03/30 07:58:49;;;;;;;6.93;3.93;;;;;;;;;;5050532;28;20802;-72
2021/03/30 08:01:16;;;;;;;8.73;3.67;;;;;;;;;;5040392;28;20824;-72
2021/03/30 08:03:44;;;;;;;11.47;4.57;;;;;;;;;;5055024;28;20414;-72
2021/03/30 08:06:11;;;;;;;8.83;3.80;;;;;;;;;;5050286;28;20425;-72
2021/03/30 08:08:47;;;;;;;5.87;3.67;;;;;;;;;;5052591;28;20864;-71
2021/03/30 08:11:14;;;;;;;8.27;2.80;;;;;;;;;;5053692;28;20465;-72
2021/03/30 08:13:54;;;;;;;5.93;3.37;;;;;;;;;;5053966;28;20424;-72
2021/03/30 08:16:20;;;;;;;6.80;4.07;;;;;;;;;;5043735;28;20460;-72
2021/03/30 08:18:47;;;;;;;7.50;3.50;;;;;;;;;;5052143;28;20438;-73
2021/03/30 08:21:14;;;;;;;6.93;3.77;;;;;;;;;;5054017;28;20794;-72
2021/03/30 08:23:53;;;;;;;9.57;4.20;;;;;;;;;;5051365;28;20426;-72
2021/03/30 08:26:23;;;;;;;6.77;4.10;;;;;;;;;;5046895;28;20426;-72
2021/03/30 08:28:49;;;;;;;12.30;4.57;;;;;;;;;;5044082;28;20439;-72
2021/03/30 08:31:19;;;;;;;8.60;4.00;;;;;;;;;;5051024;28;20512;-72
2021/03/30 08:33:46;;;;;;;8.37;4.83;;;;;;;;;;5052968;28;20491;-72
2021/03/30 08:36:23;;;;;;;12.33;5.07;;;;;;;;;;5051820;28;20485;-73
2021/03/30 08:38:49;;;;;;;9.57;4.80;;;;;;;;;;5055082;28;20425;-73
2021/03/30 08:41:34;;;;;;;12.20;5.72;;;;;;;;;;5052161;28;20911;-72
2021/03/30 08:44:15;;;;;;;9.10;5.20;;;;;;;;;;5051328;28;20180;-73
2021/03/30 08:46:43;;;;;;;6.10;4.40;;;;;;;;;;5048498;28;20492;-73
2021/03/30 08:49:24;;;;;;;11.90;5.40;;;;;;;;;;5054638;28;20527;-73
2021/03/30 08:51:52;;;;;;;11.75;5.10;;;;;;;;;;5052474;28;20427;-73
2021/03/30 08:54:19;;;;;;;9.30;5.60;;;;;;;;;;5053325;28;20562;-72
2021/03/30 08:56:49;;;;;;;10.80;5.80;;;;;;;;;;5051264;28;20461;-73
2021/03/30 08:59:18;;;;;;;11.67;5.80;;;;;;;;;;5046700;28;20418;-72
2021/03/30 09:01:45;;;;;;;8.43;6.30;;;;;;;;;;5044092;28;20506;-73
2021/03/30 09:04:11;;;;;;;6.43;4.73;;;;;;;;;;5044953;28;20425;-72
2021/03/30 09:06:40;;;;;;;9.93;5.87;;;;;;;;;;5044641;28;20483;-72
2021/03/30 09:09:20;;;;;;;8.60;5.10;;;;;;;;;;5044049;28;20461;-72
2021/03/30 09:11:46;;;;;;;10.90;5.23;;;;;;;;;;5048932;28;20420;-72
2021/03/30 09:14:15;;;;;;;15.00;5.33;;;;;;;;;;5046010;28;20450;-72
2021/03/30 09:16:43;;;;;;;7.70;4.30;;;;;;;;;;5042694;28;20462;-72
2021/03/30 09:19:17;;;;;;;9.03;5.40;;;;;;;;;;5042577;28;20493;-73
2021/03/30 09:21:45;;;;;;;8.57;5.30;;;;;;;;;;5040582;28;20931;-72
2021/03/30 09:24:23;;;;;;;10.40;4.70;;;;;;;;;;5052065;28;20415;-72
2021/03/30 09:26:49;;;;;;;8.17;3.73;;;;;;;;;;5046842;28;20441;-71
2021/03/30 09:29:16;;;;;;;8.73;4.60;;;;;;;;;;5044999;28;20529;-72
2021/03/30 09:31:42;;;;;;;11.80;4.80;;;;;;;;;;5039264;28;20968;-71
2021/03/30 09:34:08;;;;;;;8.40;4.63;;;;;;;;;;5051415;28;20405;-73
2021/03/30 09:36:48;;;;;;;7.70;4.43;;;;;;;;;;5049056;28;20464;-74
2021/03/30 09:39:18;;;;;;;13.13;5.03;;;;;;;;;;5043884;28;20948;-76
2021/03/30 09:41:45;;;;;;;12.43;5.03;;;;;;;;;;5041576;28;20855;-74
2021/03/30 09:44:12;;;;;;;8.50;4.87;;;;;;;;;;5048236;28;20411;-75
2021/03/30 09:46:38;;;;;;;10.50;4.67;;;;;;;;;;5042307;28;20492;-75
2021/03/30 09:49:07;;;;;;;12.63;5.97;;;;;;;;;;5047200;28;20433;-75
2021/03/30 09:51:34;;;;;;;8.43;5.53;;;;;;;;;;5041519;28;20963;-74
2021/03/30 09:54:00;;;;;;;9.57;5.70;;;;;;;;;;5044480;28;20430;-74
2021/03/30 09:56:31;;;;;;;7.30;4.40;;;;;;;;;;5041356;28;20962;-74
2021/03/30 09:58:58;;;;;;;9.77;5.10;;;;;;;;;;5040074;28;20461;-74
2021/03/30 10:01:27;;;;;;;10.40;5.10;;;;;;;;;;5042301;28;20434;-74
2021/03/30 10:03:53;;;;;;;10.23;5.40;;;;;;;;;;5041501;28;20418;-74
2021/03/30 10:06:20;;;;;;;9.17;5.77;;;;;;;;;;5044657;28;20513;-74
2021/03/30 10:08:47;;;;;;;7.03;5.43;;;;;;;;;;5041853;28;20464;-74
2021/03/30 10:11:13;;;;;;;9.60;5.03;;;;;;;;;;5052442;28;20417;-75
2021/03/30 10:13:40;;;;;;;7.73;4.57;;;;;;;;;;5042117;28;20464;-74
2021/03/30 10:16:08;;;;;;;9.57;4.80;;;;;;;;;;5050286;28;20515;-75
2021/03/30 10:18:37;;;;;;;9.20;4.83;;;;;;;;;;5047583;28;20477;-74
2021/03/30 10:21:11;;;;;;;7.00;4.77;;;;;;;;;;5042224;28;20878;-74
2021/03/30 10:23:44;;;;;;;7.57;5.30;;;;;;;;;;5043255;28;20429;-75
2021/03/30 10:26:11;;;;;;;10.40;4.60;;;;;;;;;;5047618;28;20410;-74
2021/03/30 10:28:38;;;;;;;8.53;4.50;;;;;;;;;;5043597;28;20511;-75
2021/03/30 10:33:38;;;;;;;8.77;4.77;;;;;;;;;;5044825;28;20440;-74
2021/03/30 10:36:05;;;;;;;6.60;3.87;;;;;;;;;;5042575;28;20979;-75
2021/03/30 10:38:31;;;;;;;9.93;4.83;;;;;;;;;;5044233;28;20953;-74
2021/03/30 10:41:05;;;;;;;12.30;5.57;;;;;;;;;;5041304;28;20525;-73
2021/03/30 10:43:31;;;;;;;10.07;4.63;;;;;;;;;;5043488;28;20508;-73
2021/03/30 10:45:57;;;;;;;6.93;3.90;;;;;;;;;;5042754;28;20410;-71
2021/03/30 10:48:24;;;;;;;8.17;4.67;;;;;;;;;;5039307;28;20446;-73
2021/03/30 10:50:53;;;;;;;7.10;4.80;;;;;;;;;;5041779;28;20410;-72
2021/03/30 10:53:19;;;;;;;8.63;4.83;;;;;;;;;;5043374;28;20936;-73
2021/03/30 10:55:46;;;;;;;8.37;5.13;;;;;;;;;;5040908;28;20756;-73
2021/03/30 10:58:14;;;;;;;7.23;4.57;;;;;;;;;;5042402;28;20483;-73
2021/03/30 11:00:40;;;;;;;7.60;4.20;;;;;;;;;;5039528;28;20982;-72
2021/03/30 11:03:07;;;;;;;10.10;4.90;;;;;;;;;;5048908;28;20555;-73
2021/03/30 11:05:35;;;;;;;5.00;4.10;;;;;;;;;;5046039;28;21754;-73
2021/03/30 11:08:01;;;;;;;6.10;4.43;;;;;;;;;;5045270;28;20433;-73
2021/03/30 11:10:27;;;;;;;7.40;4.73;;;;;;;;;;5046783;28;21009;-73
2021/03/30 11:12:53;;;;;;;7.57;4.60;;;;;;;;;;5044939;28;20489;-73
2021/03/30 11:15:20;;;;;;;9.77;4.57;;;;;;;;;;5047291;28;20437;-73
2021/03/30 11:17:46;;;;;;;8.30;4.93;;;;;;;;;;5048138;28;20876;-73
2021/03/30 11:20:13;;;;;;;10.53;4.97;;;;;;;;;;5040709;28;20502;-73
2021/03/30 11:22:42;;;;;;;12.50;5.50;;;;;;;;;;5048512;28;20447;-73
2021/03/30 11:25:09;;;;;;;12.03;4.63;;;;;;;;;;5052440;28;20398;-73
2021/03/30 11:27:36;;;;;;;7.63;5.27;;;;;;;;;;5050132;28;20430;-73
2021/03/30 11:30:17;;;;;;;6.23;4.33;;;;;;;;;;5049400;28;20438;-73
2021/03/30 11:37:45;;;;;;;5.70;4.40;;;;;;;;;;5042178;28;20461;-72
2021/03/30 11:40:12;;;;;;;14.00;5.43;;;;;;;;;;5043433;28;20491;-73
2021/03/30 11:42:39;;;;;;;8.57;4.67;;;;;;;;;;5050758;28;20486;-73
2021/03/30 11:45:05;;;;;;;6.00;4.17;;;;;;;;;;5049110;28;20500;-72
2021/03/30 11:47:31;;;;;;;9.00;4.03;;;;;;;;;;5048778;28;20483;-73
2021/03/30 11:49:57;;;;;;;5.07;3.60;;;;;;;;;;5048140;28;20434;-73
2021/03/30 11:52:23;;;;;;;6.67;4.33;;;;;;;;;;5039333;28;20406;-73
2021/03/30 11:54:50;;;;;;;5.80;4.00;;;;;;;;;;5049422;28;20425;-73
2021/03/30 11:57:18;;;;;;;7.07;4.10;;;;;;;;;;5048755;28;20547;-73
2021/03/30 11:59:44;;;;;;;7.23;4.10;;;;;;;;;;5051880;28;20456;-73
2021/03/30 12:02:10;;;;;;;9.37;4.00;;;;;;;;;;5051453;28;20406;-72
2021/03/30 12:04:36;;;;;;;6.03;4.43;;;;;;;;;;5048104;28;20432;-72
2021/03/30 12:07:03;;;;;;;6.60;4.30;;;;;;;;;;5049938;28;20437;-72
2021/03/30 12:09:29;;;;;;;7.33;3.60;;;;;;;;;;5047335;28;20461;-72
2021/03/30 12:12:18;;;;;;;6.30;3.73;;;;;;;;;;5050562;28;20422;-72
2021/03/30 12:14:44;;;;;;;10.10;4.77;;;;;;;;;;5049541;28;20434;-72
2021/03/30 12:17:10;;;;;;;5.23;3.50;;;;;;;;;;5049581;28;20461;-72
2021/03/30 12:19:37;;;;;;;8.43;4.67;;;;;;;;;;5052679;28;20446;-73
2021/03/30 12:22:03;;;;;;;7.80;4.43;;;;;;;;;;5052683;28;20421;-73
2021/03/30 12:24:29;;;;;;;11.17;4.23;;;;;;;;;;5051958;28;20858;-73
2021/03/30 12:26:55;;;;;;;11.87;6.97;;;;;;;;;;5054429;28;20464;-73
2021/03/30 12:29:21;;;;;;;8.10;4.50;;;;;;;;;;5048277;28;20462;-73
2021/03/30 12:31:47;;;;;;;9.57;4.23;;;;;;;;;;5053217;28;20422;-72
2021/03/30 12:34:14;;;;;;;5.83;4.40;;;;;;;;;;5046519;28;20942;-71
2021/03/30 12:36:41;;;;;;;5.23;3.60;;;;;;;;;;5051483;28;20452;-72
2021/03/30 12:39:07;;;;;;;8.33;4.40;;;;;;;;;;5049715;28;20968;-72
2021/03/30 12:41:33;;;;;;;8.33;4.70;;;;;;;;;;5044900;28;20435;-72
2021/03/30 12:43:59;;;;;;;6.13;4.27;;;;;;;;;;5053481;28;20433;-73
2021/03/30 12:46:26;;;;;;;5.27;3.57;;;;;;;;;;5053514;28;20926;-73
2021/03/30 12:48:52;;;;;;;7.97;3.93;;;;;;;;;;5059718;28;20832;-73
2021/03/30 12:51:18;;;;;;;8.63;3.67;;;;;;;;;;5034963;28;20777;-73
2021/03/30 12:53:44;;;;;;;8.60;4.23;;;;;;;;;;5043847;28;20792;-73
2021/03/30 12:56:10;;;;;;;6.90;3.60;;;;;;;;;;5054268;28;20500;-73
2021/03/30 12:58:36;;;;;;;6.07;3.70;;;;;;;;;;5043546;28;20442;-72
2021/03/30 13:01:04;;;;;;;6.07;3.33;;;;;;;;;;5042939;28;20635;-72
2021/03/30 13:03:30;;;;;;;8.17;4.63;;;;;;;;;;5046193;28;20479;-73
2021/03/30 13:05:56;;;;;;;6.27;4.17;;;;;;;;;;5048325;28;20495;-72
2021/03/30 13:08:22;;;;;;;10.60;4.73;;;;;;;;;;5046868;28;20434;-73
2021/03/30 13:10:48;;;;;;;7.00;4.73;;;;;;;;;;5044072;28;20425;-74
2021/03/30 13:13:14;;;;;;;7.70;3.30;;;;;;;;;;5041386;28;20445;-73
2021/03/30 13:15:41;;;;;;;4.73;3.93;;;;;;;;;;5047513;28;20425;-73
2021/03/30 13:18:07;;;;;;;7.20;5.27;;;;;;;;;;5045599;28;20433;-73
2021/03/30 13:20:33;;;;;;;8.27;4.50;;;;;;;;;;5043370;28;20498;-73
2021/03/30 13:23:01;;;;;;;7.90;4.53;;;;;;;;;;5052753;28;20472;-73
2021/03/30 13:25:33;;;;;;;6.30;4.43;;;;;;;;;;5052677;28;20467;-73
2021/03/30 13:28:00;;;;;;;7.83;5.00;;;;;;;;;;5051865;28;20453;-73
2021/03/30 13:30:26;;;;;;;7.00;4.63;;;;;;;;;;5051998;28;20418;-73
2021/03/30 13:32:52;;;;;;;9.50;4.30;;;;;;;;;;5047248;28;20403;-73
2021/03/30 13:35:19;;;;;;;5.83;3.60;;;;;;;;;;5045010;28;20422;-73
2021/03/30 13:37:45;;;;;;;8.37;4.73;;;;;;;;;;5050347;28;20449;-73
2021/03/30 13:40:11;;;;;;;7.83;4.90;;;;;;;;;;5055423;28;20444;-73
2021/03/30 13:42:37;;;;;;;7.40;4.27;;;;;;;;;;5045026;28;20509;-73
2021/03/30 13:45:04;;;;;;;7.50;4.80;;;;;;;;;;5046831;28;20412;-73
2021/03/30 13:47:30;;;;;;;7.20;4.93;;;;;;;;;;5051270;28;20434;-75
2021/03/30 13:49:56;;;;;;;5.93;3.80;;;;;;;;;;5042578;28;20442;-75
2021/03/30 13:52:23;;;;;;;6.13;4.07;;;;;;;;;;5041596;28;20442;-75
2021/03/30 13:54:49;;;;;;;13.03;6.80;;;;;;;;;;5041904;28;20792;-75
2021/03/30 13:57:17;;;;;;;7.07;4.43;;;;;;;;;;5044047;28;20449;-75
2021/03/30 13:59:43;;;;;;;7.87;4.23;;;;;;;;;;5047932;28;20508;-75
2021/03/30 14:02:09;;;;;;;7.40;4.37;;;;;;;;;;5050293;28;20788;-74
2021/03/30 14:04:35;;;;;;;5.17;3.47;;;;;;;;;;5052573;28;20426;-75
2021/03/30 14:07:01;;;;;;;5.50;3.60;;;;;;;;;;5051918;28;20414;-75
2021/03/30 14:09:30;;;;;;;6.17;3.90;;;;;;;;;;5059434;28;20550;-73
2021/03/30 14:12:04;;;;;;;9.30;4.70;;;;;;;;;;5048847;28;20426;-75
2021/03/30 14:14:36;;;;;;;7.40;3.90;;;;;;;;;;5051965;28;20436;-75
2021/03/30 14:17:05;;;;;;;6.43;4.30;;;;;;;;;;5033471;28;20476;-75
2021/03/30 14:19:57;;;;;;;8.17;3.53;;;;;;;;;;5042131;28;20454;-75
2021/03/30 14:22:22;;;;;;;8.70;5.50;;;;;;;;;;5048293;28;20926;-75
2021/03/30 14:24:50;;;;;;;7.70;5.80;;;;;;;;;;5049908;28;20450;-75
2021/03/30 14:27:16;;;;;;;8.97;4.93;;;;;;;;;;5050487;28;20458;-75
2021/03/30 14:29:45;;;;;;;10.20;5.60;;;;;;;;;;5042158;28;20461;-74
2021/03/30 14:32:15;;;;;;;6.73;5.10;;;;;;;;;;5043575;28;20446;-75
2021/03/30 14:34:41;;;;;;;9.17;5.10;;;;;;;;;;5040744;28;20434;-75
2021/03/30 14:37:08;;;;;;;10.30;5.40;;;;;;;;;;5045230;28;20470;-74
2021/03/30 14:39:34;;;;;;;9.90;5.37;;;;;;;;;;5047235;28;20473;-74
2021/03/30 14:42:10;;;;;;;9.50;5.43;;;;;;;;;;5042676;28;20446;-74
2021/03/30 14:58:00;;;;;;;6.87;4.13;;;;;;;;;;5052957;28;20466;-75
2021/03/30 15:05:25;;;;;;;8.50;5.20;;;;;;;;;;5049362;28;20476;-76
2021/03/30 15:07:51;;;;;;;9.50;5.77;;;;;;;;;;5049886;28;20934;-75
2021/03/30 15:10:17;;;;;;;8.07;5.50;;;;;;;;;;5048980;28;20469;-75
2021/03/30 15:12:43;;;;;;;9.70;6.23;;;;;;;;;;5043171;28;20430;-75